Portada
METAR-TAF:

METAR-TAF

Aeroports :

Luang Prabang, Laos

latitud: 19-53N, longitud: 102-08E, altitud: 305 m

Observació

L'informe es va fer fa 2 hores i 6 minuts, a les 00:00 UTC
Vent 2 kt del Sud
Temperatura 25°C
Humitat 89%
Pressió 1006 hPa
Visibilitat 10 km o més
Núvols disperses a una alçada de 2000 ft
Núvols disperses a una alçada de 6000 ft
Cel ennuvolat a una alçada de 8000 ft

METAR: VLLB 190000Z 18002KT 9999 SCT020 SCT060 BKN080 25/23 Q1006 NOSIG

Hora: 09:06 (02:06 UTC)

Pronòstic

L'informe es va fer fa 3 hores i 6 minuts, a les 23:00 UTC
Pronòstic vàlid del 19 a les 00 UTC al 19 a les 24 UTC
Vent 4 kt del Sud-Oest
Visibilitat 10 km o més
Núvols disperses a una alçada de 1700 ft
Núvols disperses a una alçada de 6000 ft
Cel ennuvolat a una alçada de 8000 ft

TAF: VLLB 182300Z 1900/1924 22004KT 9999 SCT017 SCT060 BKN080

Observacions i pronòstics meteorològics de més de 4000 aeroports (METAR i TAF).

Les estacions disponibles són els punts grocs i vermells al mapa.

Posi el ratolí al punt desitjat per veure el nom de l'estació.

Feu clic per veure les observacions i els pronòstics meteorològics.

Per canviar el mapa: feu clic els botons verds amb una creu de color negre per apropar; al botó verd amb un guió per allunyar la imatge; o en les fletxes verdes per a mapes adjacents.


METAR-TAF: